sensor_id;sensor_type;location;lat;lon;timestamp;temperature;humidity
60727;DHT22;46577;49.004;12.120;2022-11-11T00:00:21;7.20;99.90
60727;DHT22;46577;49.004;12.120;2022-11-11T00:02:47;7.20;99.90
60727;DHT22;46577;49.004;12.120;2022-11-11T00:05:16;7.20;99.90
60727;DHT22;46577;49.004;12.120;2022-11-11T00:07:42;7.20;99.90
60727;DHT22;46577;49.004;12.120;2022-11-11T00:10:08;7.30;99.90
60727;DHT22;46577;49.004;12.120;2022-11-11T00:12:34;7.30;99.90
60727;DHT22;46577;49.004;12.120;2022-11-11T00:15:00;7.30;99.90
60727;DHT22;46577;49.004;12.120;2022-11-11T00:17:26;7.30;99.90
60727;DHT22;46577;49.004;12.120;2022-11-11T00:20:10;7.20;99.90
60727;DHT22;46577;49.004;12.120;2022-11-11T00:22:55;7.20;99.90
60727;DHT22;46577;49.004;12.120;2022-11-11T00:25:39;7.30;99.90
60727;DHT22;46577;49.004;12.120;2022-11-11T00:28:05;7.20;99.90
60727;DHT22;46577;49.004;12.120;2022-11-11T00:30:30;7.20;99.90
60727;DHT22;46577;49.004;12.120;2022-11-11T00:32:56;7.20;99.90
60727;DHT22;46577;49.004;12.120;2022-11-11T00:35:22;7.10;99.90
60727;DHT22;46577;49.004;12.120;2022-11-11T00:38:08;7.10;99.90
60727;DHT22;46577;49.004;12.120;2022-11-11T00:40:34;7.10;99.90
60727;DHT22;46577;49.004;12.120;2022-11-11T00:42:59;7.20;99.90
60727;DHT22;46577;49.004;12.120;2022-11-11T00:45:25;7.10;99.90
60727;DHT22;46577;49.004;12.120;2022-11-11T00:47:50;7.10;99.90
60727;DHT22;46577;49.004;12.120;2022-11-11T00:50:34;7.00;99.90
60727;DHT22;46577;49.004;12.120;2022-11-11T00:53:24;7.00;99.90
60727;DHT22;46577;49.004;12.120;2022-11-11T00:55:50;7.00;99.90
60727;DHT22;46577;49.004;12.120;2022-11-11T00:58:16;7.20;99.90
60727;DHT22;46577;49.004;12.120;2022-11-11T01:00:44;7.20;99.90
60727;DHT22;46577;49.004;12.120;2022-11-11T01:03:10;7.30;99.90
60727;DHT22;46577;49.004;12.120;2022-11-11T01:05:36;7.20;99.90
60727;DHT22;46577;49.004;12.120;2022-11-11T01:08:02;7.20;99.90
60727;DHT22;46577;49.004;12.120;2022-11-11T01:10:28;7.20;99.90
60727;DHT22;46577;49.004;12.120;2022-11-11T01:13:05;7.30;99.90
60727;DHT22;46577;49.004;12.120;2022-11-11T01:15:41;8.30;99.90
60727;DHT22;46577;49.004;12.120;2022-11-11T01:18:07;7.30;99.90
60727;DHT22;46577;49.004;12.120;2022-11-11T01:20:33;7.30;99.90
60727;DHT22;46577;49.004;12.120;2022-11-11T01:22:59;7.40;99.90
60727;DHT22;46577;49.004;12.120;2022-11-11T01:25:24;7.40;99.90
60727;DHT22;46577;49.004;12.120;2022-11-11T01:27:50;7.50;99.90
60727;DHT22;46577;49.004;12.120;2022-11-11T01:30:16;7.50;99.90
60727;DHT22;46577;49.004;12.120;2022-11-11T01:32:41;7.50;99.90
60727;DHT22;46577;49.004;12.120;2022-11-11T01:35:07;7.50;99.90
60727;DHT22;46577;49.004;12.120;2022-11-11T01:37:33;7.40;99.90
60727;DHT22;46577;49.004;12.120;2022-11-11T01:39:59;7.40;99.90
60727;DHT22;46577;49.004;12.120;2022-11-11T01:42:25;7.50;99.90
60727;DHT22;46577;49.004;12.120;2022-11-11T01:44:51;7.40;99.90
60727;DHT22;46577;49.004;12.120;2022-11-11T01:47:17;7.50;99.90
60727;DHT22;46577;49.004;12.120;2022-11-11T01:49:56;7.30;99.90
60727;DHT22;46577;49.004;12.120;2022-11-11T01:52:38;7.30;99.90
60727;DHT22;46577;49.004;12.120;2022-11-11T01:55:12;7.20;99.90
60727;DHT22;46577;49.004;12.120;2022-11-11T01:57:50;7.20;99.90
60727;DHT22;46577;49.004;12.120;2022-11-11T02:00:19;7.10;99.90
60727;DHT22;46577;49.004;12.120;2022-11-11T02:03:05;7.10;99.90
60727;DHT22;46577;49.004;12.120;2022-11-11T02:05:32;7.00;99.90
60727;DHT22;46577;49.004;12.120;2022-11-11T02:08:20;7.00;99.90
60727;DHT22;46577;49.004;12.120;2022-11-11T02:11:10;7.00;99.90
60727;DHT22;46577;49.004;12.120;2022-11-11T02:13:42;7.00;99.90
60727;DHT22;46577;49.004;12.120;2022-11-11T02:16:26;7.00;99.90
60727;DHT22;46577;49.004;12.120;2022-11-11T02:18:52;7.00;99.90
60727;DHT22;46577;49.004;12.120;2022-11-11T02:21:41;7.00;99.90
60727;DHT22;46577;49.004;12.120;2022-11-11T02:24:11;7.10;99.90
60727;DHT22;46577;49.004;12.120;2022-11-11T02:26:39;7.20;99.90
60727;DHT22;46577;49.004;12.120;2022-11-11T02:29:16;6.40;99.90
60727;DHT22;46577;49.004;12.120;2022-11-11T02:31:43;7.10;99.90
60727;DHT22;46577;49.004;12.120;2022-11-11T02:34:08;7.30;99.90
60727;DHT22;46577;49.004;12.120;2022-11-11T02:36:35;7.20;99.90
60727;DHT22;46577;49.004;12.120;2022-11-11T02:39:01;7.30;99.90
60727;DHT22;46577;49.004;12.120;2022-11-11T02:41:27;7.30;99.90
60727;DHT22;46577;49.004;12.120;2022-11-11T02:44:11;7.30;99.90
60727;DHT22;46577;49.004;12.120;2022-11-11T02:46:36;7.30;99.90
60727;DHT22;46577;49.004;12.120;2022-11-11T02:49:02;7.30;99.90
60727;DHT22;46577;49.004;12.120;2022-11-11T02:51:27;7.10;99.90
60727;DHT22;46577;49.004;12.120;2022-11-11T02:53:53;7.00;99.90
60727;DHT22;46577;49.004;12.120;2022-11-11T02:56:24;7.00;99.90
60727;DHT22;46577;49.004;12.120;2022-11-11T02:59:08;7.10;99.90
60727;DHT22;46577;49.004;12.120;2022-11-11T03:01:34;7.00;99.90
60727;DHT22;46577;49.004;12.120;2022-11-11T03:03:59;7.00;99.90
60727;DHT22;46577;49.004;12.120;2022-11-11T03:06:25;7.00;99.90
60727;DHT22;46577;49.004;12.120;2022-11-11T03:08:50;7.00;99.90
60727;DHT22;46577;49.004;12.120;2022-11-11T03:11:16;7.20;99.90
60727;DHT22;46577;49.004;12.120;2022-11-11T03:13:52;7.00;99.90
60727;DHT22;46577;49.004;12.120;2022-11-11T03:16:18;6.90;99.90
60727;DHT22;46577;49.004;12.120;2022-11-11T03:19:02;6.90;99.90
60727;DHT22;46577;49.004;12.120;2022-11-11T03:21:27;6.80;99.90
60727;DHT22;46577;49.004;12.120;2022-11-11T03:23:53;6.80;99.90
60727;DHT22;46577;49.004;12.120;2022-11-11T03:26:19;6.90;99.90
60727;DHT22;46577;49.004;12.120;2022-11-11T03:28:44;6.80;99.90
60727;DHT22;46577;49.004;12.120;2022-11-11T03:31:10;6.90;99.90
60727;DHT22;46577;49.004;12.120;2022-11-11T03:33:35;6.90;99.90
60727;DHT22;46577;49.004;12.120;2022-11-11T03:36:01;7.00;99.90
60727;DHT22;46577;49.004;12.120;2022-11-11T03:38:26;7.00;99.90
60727;DHT22;46577;49.004;12.120;2022-11-11T03:40:54;6.90;99.90
60727;DHT22;46577;49.004;12.120;2022-11-11T03:43:22;6.90;99.90
60727;DHT22;46577;49.004;12.120;2022-11-11T03:45:48;6.80;99.90
60727;DHT22;46577;49.004;12.120;2022-11-11T03:48:14;6.90;99.90
60727;DHT22;46577;49.004;12.120;2022-11-11T03:50:40;6.90;99.90
60727;DHT22;46577;49.004;12.120;2022-11-11T03:53:06;6.80;99.90
60727;DHT22;46577;49.004;12.120;2022-11-11T03:55:32;6.80;99.90
60727;DHT22;46577;49.004;12.120;2022-11-11T03:57:57;6.80;99.90
60727;DHT22;46577;49.004;12.120;2022-11-11T04:00:26;6.80;99.90
60727;DHT22;46577;49.004;12.120;2022-11-11T04:03:04;7.10;99.90
60727;DHT22;46577;49.004;12.120;2022-11-11T04:05:49;6.80;99.90
60727;DHT22;46577;49.004;12.120;2022-11-11T04:08:33;6.90;99.90
60727;DHT22;46577;49.004;12.120;2022-11-11T04:13:56;7.00;99.90
60727;DHT22;46577;49.004;12.120;2022-11-11T04:16:40;7.00;99.90
60727;DHT22;46577;49.004;12.120;2022-11-11T04:19:06;7.00;99.90
60727;DHT22;46577;49.004;12.120;2022-11-11T04:21:50;6.70;99.90
60727;DHT22;46577;49.004;12.120;2022-11-11T04:24:17;6.60;99.90
60727;DHT22;46577;49.004;12.120;2022-11-11T04:27:12;6.50;99.90
60727;DHT22;46577;49.004;12.120;2022-11-11T04:29:38;6.50;99.90
60727;DHT22;46577;49.004;12.120;2022-11-11T04:32:06;6.40;99.90
60727;DHT22;46577;49.004;12.120;2022-11-11T04:35:10;6.40;99.90
60727;DHT22;46577;49.004;12.120;2022-11-11T04:37:44;6.40;99.90
60727;DHT22;46577;49.004;12.120;2022-11-11T04:40:10;6.50;99.90
60727;DHT22;46577;49.004;12.120;2022-11-11T04:42:55;6.50;99.90
60727;DHT22;46577;49.004;12.120;2022-11-11T04:45:20;6.60;99.90
60727;DHT22;46577;49.004;12.120;2022-11-11T04:48:09;6.60;99.90
60727;DHT22;46577;49.004;12.120;2022-11-11T04:50:37;6.50;99.90
60727;DHT22;46577;49.004;12.120;2022-11-11T04:53:05;6.40;99.90
60727;DHT22;46577;49.004;12.120;2022-11-11T04:55:31;6.50;99.90
60727;DHT22;46577;49.004;12.120;2022-11-11T04:58:17;6.40;99.90
60727;DHT22;46577;49.004;12.120;2022-11-11T05:00:43;6.40;99.90
60727;DHT22;46577;49.004;12.120;2022-11-11T05:03:10;6.50;99.90
60727;DHT22;46577;49.004;12.120;2022-11-11T05:08:41;6.50;99.90
60727;DHT22;46577;49.004;12.120;2022-11-11T05:11:28;6.40;99.90
60727;DHT22;46577;49.004;12.120;2022-11-11T05:13:58;6.40;99.90
60727;DHT22;46577;49.004;12.120;2022-11-11T05:16:56;6.40;99.90
60727;DHT22;46577;49.004;12.120;2022-11-11T05:19:41;6.40;99.90
60727;DHT22;46577;49.004;12.120;2022-11-11T05:22:37;6.50;99.90
60727;DHT22;46577;49.004;12.120;2022-11-11T05:25:04;6.40;99.90
60727;DHT22;46577;49.004;12.120;2022-11-11T05:27:48;6.40;99.90
60727;DHT22;46577;49.004;12.120;2022-11-11T05:30:15;6.40;99.90
60727;DHT22;46577;49.004;12.120;2022-11-11T05:32:41;6.40;99.90
60727;DHT22;46577;49.004;12.120;2022-11-11T05:35:08;6.50;99.90
60727;DHT22;46577;49.004;12.120;2022-11-11T05:37:34;6.50;99.90
60727;DHT22;46577;49.004;12.120;2022-11-11T05:40:00;6.50;99.90
60727;DHT22;46577;49.004;12.120;2022-11-11T05:42:25;6.50;99.90
60727;DHT22;46577;49.004;12.120;2022-11-11T05:44:51;6.60;99.90
60727;DHT22;46577;49.004;12.120;2022-11-11T05:47:17;6.60;99.90
60727;DHT22;46577;49.004;12.120;2022-11-11T05:49:43;6.70;99.90
60727;DHT22;46577;49.004;12.120;2022-11-11T05:52:10;6.60;99.90
60727;DHT22;46577;49.004;12.120;2022-11-11T05:54:36;6.60;99.90
60727;DHT22;46577;49.004;12.120;2022-11-11T05:57:02;6.60;99.90
60727;DHT22;46577;49.004;12.120;2022-11-11T05:59:29;6.50;99.90
60727;DHT22;46577;49.004;12.120;2022-11-11T06:01:54;6.50;99.90
60727;DHT22;46577;49.004;12.120;2022-11-11T06:04:20;6.60;99.90
60727;DHT22;46577;49.004;12.120;2022-11-11T06:06:45;6.60;99.90
60727;DHT22;46577;49.004;12.120;2022-11-11T06:09:11;6.70;99.90
60727;DHT22;46577;49.004;12.120;2022-11-11T06:11:37;6.60;99.90
60727;DHT22;46577;49.004;12.120;2022-11-11T06:14:03;6.40;99.90
60727;DHT22;46577;49.004;12.120;2022-11-11T06:16:29;6.20;99.90
60727;DHT22;46577;49.004;12.120;2022-11-11T06:18:54;6.20;99.90
60727;DHT22;46577;49.004;12.120;2022-11-11T06:21:20;6.40;99.90
60727;DHT22;46577;49.004;12.120;2022-11-11T06:23:45;6.20;99.90
60727;DHT22;46577;49.004;12.120;2022-11-11T06:26:12;6.70;99.90
60727;DHT22;46577;49.004;12.120;2022-11-11T06:31:04;6.40;99.90
60727;DHT22;46577;49.004;12.120;2022-11-11T06:33:33;6.40;99.90
60727;DHT22;46577;49.004;12.120;2022-11-11T06:35:59;6.40;99.90
60727;DHT22;46577;49.004;12.120;2022-11-11T06:38:25;6.50;99.90
60727;DHT22;46577;49.004;12.120;2022-11-11T06:40:51;6.50;99.90
60727;DHT22;46577;49.004;12.120;2022-11-11T06:43:16;6.60;99.90
60727;DHT22;46577;49.004;12.120;2022-11-11T06:45:42;6.50;99.90
60727;DHT22;46577;49.004;12.120;2022-11-11T06:48:08;6.60;99.90
60727;DHT22;46577;49.004;12.120;2022-11-11T06:50:34;6.80;99.90
60727;DHT22;46577;49.004;12.120;2022-11-11T06:53:08;6.70;99.90
60727;DHT22;46577;49.004;12.120;2022-11-11T06:55:34;6.80;99.90
60727;DHT22;46577;49.004;12.120;2022-11-11T06:58:14;6.80;99.90
60727;DHT22;46577;49.004;12.120;2022-11-11T07:00:41;6.80;99.90
60727;DHT22;46577;49.004;12.120;2022-11-11T07:03:10;6.80;99.90
60727;DHT22;46577;49.004;12.120;2022-11-11T07:05:36;6.80;99.90
60727;DHT22;46577;49.004;12.120;2022-11-11T07:08:10;6.70;99.90
60727;DHT22;46577;49.004;12.120;2022-11-11T07:10:38;6.60;99.90
60727;DHT22;46577;49.004;12.120;2022-11-11T07:13:05;6.70;99.90
60727;DHT22;46577;49.004;12.120;2022-11-11T07:15:31;6.70;99.90
60727;DHT22;46577;49.004;12.120;2022-11-11T07:17:57;6.60;99.90
60727;DHT22;46577;49.004;12.120;2022-11-11T07:20:23;6.60;99.90
60727;DHT22;46577;49.004;12.120;2022-11-11T07:22:48;6.60;99.90
60727;DHT22;46577;49.004;12.120;2022-11-11T07:25:14;6.60;99.90
60727;DHT22;46577;49.004;12.120;2022-11-11T07:27:40;6.60;99.90
60727;DHT22;46577;49.004;12.120;2022-11-11T07:30:07;6.70;99.90
60727;DHT22;46577;49.004;12.120;2022-11-11T07:32:33;6.70;99.90
60727;DHT22;46577;49.004;12.120;2022-11-11T07:34:58;6.70;99.90
60727;DHT22;46577;49.004;12.120;2022-11-11T07:37:24;6.70;99.90
60727;DHT22;46577;49.004;12.120;2022-11-11T07:39:50;6.80;99.90
60727;DHT22;46577;49.004;12.120;2022-11-11T07:42:16;6.70;99.90
60727;DHT22;46577;49.004;12.120;2022-11-11T07:44:41;6.80;99.90
60727;DHT22;46577;49.004;12.120;2022-11-11T07:47:07;6.70;99.90
60727;DHT22;46577;49.004;12.120;2022-11-11T07:49:33;6.60;99.90
60727;DHT22;46577;49.004;12.120;2022-11-11T07:51:59;6.60;99.90
60727;DHT22;46577;49.004;12.120;2022-11-11T07:54:24;6.60;99.90
60727;DHT22;46577;49.004;12.120;2022-11-11T07:56:50;6.60;99.90
60727;DHT22;46577;49.004;12.120;2022-11-11T07:59:16;6.60;99.90
60727;DHT22;46577;49.004;12.120;2022-11-11T08:01:41;6.60;99.90
60727;DHT22;46577;49.004;12.120;2022-11-11T08:04:07;6.70;99.90
60727;DHT22;46577;49.004;12.120;2022-11-11T08:06:33;6.80;99.90
60727;DHT22;46577;49.004;12.120;2022-11-11T08:08:58;6.80;99.90
60727;DHT22;46577;49.004;12.120;2022-11-11T08:11:24;6.90;99.90
60727;DHT22;46577;49.004;12.120;2022-11-11T08:14:08;7.00;99.90
60727;DHT22;46577;49.004;12.120;2022-11-11T08:16:34;7.10;99.90
60727;DHT22;46577;49.004;12.120;2022-11-11T08:19:00;7.20;99.90
60727;DHT22;46577;49.004;12.120;2022-11-11T08:21:26;7.20;99.90
60727;DHT22;46577;49.004;12.120;2022-11-11T08:23:52;7.10;99.90
60727;DHT22;46577;49.004;12.120;2022-11-11T08:26:18;7.00;99.90
60727;DHT22;46577;49.004;12.120;2022-11-11T08:28:44;7.10;99.90
60727;DHT22;46577;49.004;12.120;2022-11-11T08:31:10;7.10;99.90
60727;DHT22;46577;49.004;12.120;2022-11-11T08:33:35;7.20;99.90
60727;DHT22;46577;49.004;12.120;2022-11-11T08:36:02;7.10;99.90
60727;DHT22;46577;49.004;12.120;2022-11-11T08:38:28;7.00;99.90
60727;DHT22;46577;49.004;12.120;2022-11-11T08:40:54;7.00;99.90
60727;DHT22;46577;49.004;12.120;2022-11-11T08:43:20;7.00;99.90
60727;DHT22;46577;49.004;12.120;2022-11-11T08:45:47;7.00;99.90
60727;DHT22;46577;49.004;12.120;2022-11-11T08:48:13;7.10;99.90
60727;DHT22;46577;49.004;12.120;2022-11-11T08:50:39;7.00;99.90
60727;DHT22;46577;49.004;12.120;2022-11-11T08:53:06;7.10;99.90
60727;DHT22;46577;49.004;12.120;2022-11-11T08:55:36;7.00;99.90
60727;DHT22;46577;49.004;12.120;2022-11-11T08:58:04;6.90;99.90
60727;DHT22;46577;49.004;12.120;2022-11-11T09:00:30;6.90;99.90
60727;DHT22;46577;49.004;12.120;2022-11-11T09:03:07;6.90;99.90
60727;DHT22;46577;49.004;12.120;2022-11-11T09:05:37;6.90;99.90
60727;DHT22;46577;49.004;12.120;2022-11-11T09:08:04;6.90;99.90
60727;DHT22;46577;49.004;12.120;2022-11-11T09:10:36;6.90;99.90
60727;DHT22;46577;49.004;12.120;2022-11-11T09:13:02;6.80;99.90
60727;DHT22;46577;49.004;12.120;2022-11-11T09:15:28;6.90;99.90
60727;DHT22;46577;49.004;12.120;2022-11-11T09:17:54;6.90;99.90
60727;DHT22;46577;49.004;12.120;2022-11-11T09:20:20;7.00;99.90
60727;DHT22;46577;49.004;12.120;2022-11-11T09:22:47;7.00;99.90
60727;DHT22;46577;49.004;12.120;2022-11-11T09:25:13;7.00;99.90
60727;DHT22;46577;49.004;12.120;2022-11-11T09:27:39;7.10;99.90
60727;DHT22;46577;49.004;12.120;2022-11-11T09:30:06;7.20;99.90
60727;DHT22;46577;49.004;12.120;2022-11-11T09:32:32;7.30;99.90
60727;DHT22;46577;49.004;12.120;2022-11-11T09:34:58;7.50;99.90
60727;DHT22;46577;49.004;12.120;2022-11-11T09:37:24;7.70;99.90
60727;DHT22;46577;49.004;12.120;2022-11-11T09:39:50;7.90;99.90
60727;DHT22;46577;49.004;12.120;2022-11-11T09:42:28;8.20;99.90
60727;DHT22;46577;49.004;12.120;2022-11-11T09:45:09;8.30;99.90
60727;DHT22;46577;49.004;12.120;2022-11-11T09:47:54;8.50;99.90
60727;DHT22;46577;49.004;12.120;2022-11-11T09:50:24;8.40;99.90
60727;DHT22;46577;49.004;12.120;2022-11-11T09:55:29;8.20;99.90
60727;DHT22;46577;49.004;12.120;2022-11-11T09:57:59;8.30;99.90
60727;DHT22;46577;49.004;12.120;2022-11-11T10:00:29;8.10;99.90
60727;DHT22;46577;49.004;12.120;2022-11-11T10:03:05;8.10;99.90
60727;DHT22;46577;49.004;12.120;2022-11-11T10:06:02;8.30;99.90
60727;DHT22;46577;49.004;12.120;2022-11-11T10:08:45;8.50;99.90
60727;DHT22;46577;49.004;12.120;2022-11-11T10:11:34;8.30;99.90
60727;DHT22;46577;49.004;12.120;2022-11-11T10:14:01;8.40;99.90
60727;DHT22;46577;49.004;12.120;2022-11-11T10:16:42;8.60;99.90
60727;DHT22;46577;49.004;12.120;2022-11-11T10:19:20;8.60;99.90
60727;DHT22;46577;49.004;12.120;2022-11-11T10:21:57;8.80;99.90
60727;DHT22;46577;49.004;12.120;2022-11-11T10:24:32;8.90;99.90
60727;DHT22;46577;49.004;12.120;2022-11-11T10:27:03;9.00;99.90
60727;DHT22;46577;49.004;12.120;2022-11-11T10:29:39;8.90;99.90
60727;DHT22;46577;49.004;12.120;2022-11-11T10:32:21;9.10;99.90
60727;DHT22;46577;49.004;12.120;2022-11-11T10:34:48;8.80;99.90
60727;DHT22;46577;49.004;12.120;2022-11-11T10:37:40;8.80;99.90
60727;DHT22;46577;49.004;12.120;2022-11-11T10:40:20;8.70;99.90
60727;DHT22;46577;49.004;12.120;2022-11-11T10:42:46;8.90;99.90
60727;DHT22;46577;49.004;12.120;2022-11-11T10:47:57;9.10;99.90
60727;DHT22;46577;49.004;12.120;2022-11-11T10:50:33;9.00;99.90
60727;DHT22;46577;49.004;12.120;2022-11-11T10:53:06;9.10;99.90
60727;DHT22;46577;49.004;12.120;2022-11-11T11:01:00;9.60;99.90
60727;DHT22;46577;49.004;12.120;2022-11-11T11:03:49;9.70;99.90
60727;DHT22;46577;49.004;12.120;2022-11-11T11:06:23;9.70;99.90
60727;DHT22;46577;49.004;12.120;2022-11-11T11:09:05;9.70;99.90
60727;DHT22;46577;49.004;12.120;2022-11-11T11:11:38;9.40;99.90
60727;DHT22;46577;49.004;12.120;2022-11-11T11:14:11;9.30;99.90
60727;DHT22;46577;49.004;12.120;2022-11-11T11:16:48;9.50;99.90
60727;DHT22;46577;49.004;12.120;2022-11-11T11:22:00;9.80;99.90
60727;DHT22;46577;49.004;12.120;2022-11-11T11:24:27;9.50;99.90
60727;DHT22;46577;49.004;12.120;2022-11-11T11:26:55;9.30;99.90
60727;DHT22;46577;49.004;12.120;2022-11-11T11:31:51;9.20;99.90
60727;DHT22;46577;49.004;12.120;2022-11-11T11:34:17;9.20;99.90
60727;DHT22;46577;49.004;12.120;2022-11-11T11:36:43;9.20;99.90
60727;DHT22;46577;49.004;12.120;2022-11-11T11:39:08;9.40;99.90
60727;DHT22;46577;49.004;12.120;2022-11-11T11:41:43;9.50;99.90
60727;DHT22;46577;49.004;12.120;2022-11-11T11:44:28;9.80;99.90
60727;DHT22;46577;49.004;12.120;2022-11-11T11:47:12;9.90;99.90
60727;DHT22;46577;49.004;12.120;2022-11-11T11:55:23;9.30;99.90
60727;DHT22;46577;49.004;12.120;2022-11-11T12:05:40;9.40;99.90
60727;DHT22;46577;49.004;12.120;2022-11-11T12:37:22;9.40;99.90
60727;DHT22;46577;49.004;12.120;2022-11-11T12:46:03;9.60;99.90
60727;DHT22;46577;49.004;12.120;2022-11-11T12:56:59;9.90;99.90
60727;DHT22;46577;49.004;12.120;2022-11-11T13:05:25;9.50;99.90
60727;DHT22;46577;49.004;12.120;2022-11-11T13:11:14;9.60;99.90
60727;DHT22;46577;49.004;12.120;2022-11-11T13:16:25;10.00;99.90
60727;DHT22;46577;49.004;12.120;2022-11-11T13:21:33;9.70;99.90
60727;DHT22;46577;49.004;12.120;2022-11-11T13:24:00;9.80;99.90
60727;DHT22;46577;49.004;12.120;2022-11-11T13:26:41;9.70;99.90
60727;DHT22;46577;49.004;12.120;2022-11-11T13:29:39;9.80;99.90
60727;DHT22;46577;49.004;12.120;2022-11-11T13:32:10;9.80;99.90
60727;DHT22;46577;49.004;12.120;2022-11-11T13:34:37;10.00;99.90
60727;DHT22;46577;49.004;12.120;2022-11-11T13:37:06;10.10;99.90
60727;DHT22;46577;49.004;12.120;2022-11-11T13:39:37;10.00;99.90
60727;DHT22;46577;49.004;12.120;2022-11-11T13:42:05;10.10;99.90
60727;DHT22;46577;49.004;12.120;2022-11-11T13:44:50;10.10;99.90
60727;DHT22;46577;49.004;12.120;2022-11-11T13:47:22;9.80;99.90
60727;DHT22;46577;49.004;12.120;2022-11-11T13:49:53;9.90;99.90
60727;DHT22;46577;49.004;12.120;2022-11-11T13:52:30;10.00;99.90
60727;DHT22;46577;49.004;12.120;2022-11-11T13:55:05;10.00;99.90
60727;DHT22;46577;49.004;12.120;2022-11-11T13:57:32;10.10;99.90
60727;DHT22;46577;49.004;12.120;2022-11-11T14:00:04;10.10;99.90
60727;DHT22;46577;49.004;12.120;2022-11-11T14:02:32;10.10;99.90
60727;DHT22;46577;49.004;12.120;2022-11-11T14:12:50;10.30;99.90
60727;DHT22;46577;49.004;12.120;2022-11-11T14:15:39;10.30;99.90
60727;DHT22;46577;49.004;12.120;2022-11-11T14:20:43;10.40;99.90
60727;DHT22;46577;49.004;12.120;2022-11-11T14:36:24;10.40;99.90
60727;DHT22;46577;49.004;12.120;2022-11-11T14:41:57;10.40;99.90
60727;DHT22;46577;49.004;12.120;2022-11-11T14:44:38;10.40;99.90
60727;DHT22;46577;49.004;12.120;2022-11-11T14:49:52;10.40;99.90
60727;DHT22;46577;49.004;12.120;2022-11-11T14:55:10;10.20;99.90
60727;DHT22;46577;49.004;12.120;2022-11-11T15:00:14;10.10;99.90
60727;DHT22;46577;49.004;12.120;2022-11-11T15:12:19;10.00;99.90
60727;DHT22;46577;49.004;12.120;2022-11-11T15:17:21;9.90;99.90
60727;DHT22;46577;49.004;12.120;2022-11-11T15:31:17;9.70;99.90
60727;DHT22;46577;49.004;12.120;2022-11-11T15:42:39;9.60;99.90
60727;DHT22;46577;49.004;12.120;2022-11-11T15:45:20;9.50;99.90
60727;DHT22;46577;49.004;12.120;2022-11-11T15:47:47;9.50;99.90
60727;DHT22;46577;49.004;12.120;2022-11-11T15:52:53;9.60;99.90
60727;DHT22;46577;49.004;12.120;2022-11-11T15:55:31;9.50;99.90
60727;DHT22;46577;49.004;12.120;2022-11-11T15:58:08;9.50;99.90
60727;DHT22;46577;49.004;12.120;2022-11-11T16:00:35;9.50;99.90
60727;DHT22;46577;49.004;12.120;2022-11-11T16:03:02;9.50;99.90
60727;DHT22;46577;49.004;12.120;2022-11-11T16:05:30;9.40;99.90
60727;DHT22;46577;49.004;12.120;2022-11-11T16:08:00;9.40;99.90
60727;DHT22;46577;49.004;12.120;2022-11-11T16:10:33;9.40;99.90
60727;DHT22;46577;49.004;12.120;2022-11-11T16:18:09;9.30;99.90
60727;DHT22;46577;49.004;12.120;2022-11-11T16:20:43;9.30;99.90
60727;DHT22;46577;49.004;12.120;2022-11-11T16:23:14;9.20;99.90
60727;DHT22;46577;49.004;12.120;2022-11-11T16:25:40;9.20;99.90
60727;DHT22;46577;49.004;12.120;2022-11-11T16:28:08;9.20;99.90
60727;DHT22;46577;49.004;12.120;2022-11-11T16:30:36;9.30;99.90
60727;DHT22;46577;49.004;12.120;2022-11-11T16:33:02;9.20;99.90
60727;DHT22;46577;49.004;12.120;2022-11-11T16:35:36;9.20;99.90
60727;DHT22;46577;49.004;12.120;2022-11-11T16:38:03;9.20;99.90
60727;DHT22;46577;49.004;12.120;2022-11-11T16:43:23;9.20;99.90
60727;DHT22;46577;49.004;12.120;2022-11-11T16:46:03;9.20;99.90
60727;DHT22;46577;49.004;12.120;2022-11-11T16:51:24;9.10;99.90
60727;DHT22;46577;49.004;12.120;2022-11-11T16:54:11;9.00;99.90
60727;DHT22;46577;49.004;12.120;2022-11-11T16:56:43;8.90;99.90
60727;DHT22;46577;49.004;12.120;2022-11-11T16:59:37;9.00;99.90
60727;DHT22;46577;49.004;12.120;2022-11-11T17:02:01;8.90;99.90
60727;DHT22;46577;49.004;12.120;2022-11-11T17:04:48;8.70;99.90
60727;DHT22;46577;49.004;12.120;2022-11-11T17:07:41;8.70;99.90
60727;DHT22;46577;49.004;12.120;2022-11-11T17:12:33;8.60;99.90
60727;DHT22;46577;49.004;12.120;2022-11-11T17:15:00;8.70;99.90
60727;DHT22;46577;49.004;12.120;2022-11-11T17:17:29;8.50;99.90
60727;DHT22;46577;49.004;12.120;2022-11-11T17:20:02;8.60;99.90
60727;DHT22;46577;49.004;12.120;2022-11-11T17:22:28;8.60;99.90
60727;DHT22;46577;49.004;12.120;2022-11-11T17:24:54;8.70;99.90
60727;DHT22;46577;49.004;12.120;2022-11-11T17:27:19;8.80;99.90
60727;DHT22;46577;49.004;12.120;2022-11-11T17:29:45;8.80;99.90
60727;DHT22;46577;49.004;12.120;2022-11-11T17:32:12;8.70;99.90
60727;DHT22;46577;49.004;12.120;2022-11-11T17:34:38;8.70;99.90
60727;DHT22;46577;49.004;12.120;2022-11-11T17:37:03;8.70;99.90
60727;DHT22;46577;49.004;12.120;2022-11-11T17:39:29;8.70;99.90
60727;DHT22;46577;49.004;12.120;2022-11-11T17:41:55;8.70;99.90
60727;DHT22;46577;49.004;12.120;2022-11-11T17:44:20;8.70;99.90
60727;DHT22;46577;49.004;12.120;2022-11-11T17:46:46;8.70;99.90
60727;DHT22;46577;49.004;12.120;2022-11-11T17:49:11;8.70;99.90
60727;DHT22;46577;49.004;12.120;2022-11-11T17:51:37;8.70;99.90
60727;DHT22;46577;49.004;12.120;2022-11-11T17:54:06;8.70;99.90
60727;DHT22;46577;49.004;12.120;2022-11-11T17:56:32;8.70;99.90
60727;DHT22;46577;49.004;12.120;2022-11-11T17:58:58;8.60;99.90
60727;DHT22;46577;49.004;12.120;2022-11-11T18:01:24;8.60;99.90
60727;DHT22;46577;49.004;12.120;2022-11-11T18:03:54;8.60;99.90
60727;DHT22;46577;49.004;12.120;2022-11-11T18:06:19;8.60;99.90
60727;DHT22;46577;49.004;12.120;2022-11-11T18:08:45;8.50;99.90
60727;DHT22;46577;49.004;12.120;2022-11-11T18:11:10;8.40;99.90
60727;DHT22;46577;49.004;12.120;2022-11-11T18:13:36;8.30;99.90
60727;DHT22;46577;49.004;12.120;2022-11-11T18:16:02;8.40;99.90
60727;DHT22;46577;49.004;12.120;2022-11-11T18:18:29;8.40;99.90
60727;DHT22;46577;49.004;12.120;2022-11-11T18:21:04;8.30;99.90
60727;DHT22;46577;49.004;12.120;2022-11-11T18:23:35;8.30;99.90
60727;DHT22;46577;49.004;12.120;2022-11-11T18:26:01;8.40;99.90
60727;DHT22;46577;49.004;12.120;2022-11-11T18:28:34;8.40;99.90
60727;DHT22;46577;49.004;12.120;2022-11-11T18:31:08;8.40;99.90
60727;DHT22;46577;49.004;12.120;2022-11-11T18:33:35;8.40;99.90
60727;DHT22;46577;49.004;12.120;2022-11-11T18:36:06;8.50;99.90
60727;DHT22;46577;49.004;12.120;2022-11-11T18:38:33;8.40;99.90
60727;DHT22;46577;49.004;12.120;2022-11-11T18:41:19;8.40;99.90
60727;DHT22;46577;49.004;12.120;2022-11-11T18:43:49;8.40;99.90
60727;DHT22;46577;49.004;12.120;2022-11-11T18:46:21;8.40;99.90
60727;DHT22;46577;49.004;12.120;2022-11-11T18:48:51;8.30;99.90